sensor_id;sensor_type;location;lat;lon;timestamp;pressure;altitude;pressure_sealevel;temperature;humidity
7264;BME280;3673;52.480;13.348;2023-01-30T00:01:00;100932.69;;;6.70;52.94
7264;BME280;3673;52.480;13.348;2023-01-30T00:03:28;100950.19;;;6.79;52.51
7264;BME280;3673;52.480;13.348;2023-01-30T00:05:55;100936.47;;;6.88;52.62
7264;BME280;3673;52.480;13.348;2023-01-30T00:08:22;100916.06;;;6.61;52.97
7264;BME280;3673;52.480;13.348;2023-01-30T00:10:50;100913.97;;;6.40;53.68
7264;BME280;3673;52.480;13.348;2023-01-30T00:13:17;100893.44;;;6.55;53.20
7264;BME280;3673;52.480;13.348;2023-01-30T00:15:43;100898.09;;;6.74;52.79
7264;BME280;3673;52.480;13.348;2023-01-30T00:18:10;100876.19;;;6.59;53.46
7264;BME280;3673;52.480;13.348;2023-01-30T00:20:37;100871.91;;;6.64;53.00
7264;BME280;3673;52.480;13.348;2023-01-30T00:23:04;100860.75;;;6.69;52.67
7264;BME280;3673;52.480;13.348;2023-01-30T00:25:31;100871.63;;;6.47;53.40
7264;BME280;3673;52.480;13.348;2023-01-30T00:28:00;100847.34;;;6.44;53.58
7264;BME280;3673;52.480;13.348;2023-01-30T00:30:27;100853.09;;;6.28;54.22
7264;BME280;3673;52.480;13.348;2023-01-30T00:32:55;100834.94;;;6.31;53.78
7264;BME280;3673;52.480;13.348;2023-01-30T00:35:22;100809.84;;;6.31;53.99
7264;BME280;3673;52.480;13.348;2023-01-30T00:37:54;100798.44;;;6.20;54.26
7264;BME280;3673;52.480;13.348;2023-01-30T00:40:22;100790.97;;;6.40;53.74
7264;BME280;3673;52.480;13.348;2023-01-30T00:42:49;100795.28;;;6.41;53.49
7264;BME280;3673;52.480;13.348;2023-01-30T00:45:35;100771.06;;;6.42;53.73
7264;BME280;3673;52.480;13.348;2023-01-30T00:48:22;100769.75;;;6.66;53.25
7264;BME280;3673;52.480;13.348;2023-01-30T00:50:48;100745.88;;;6.36;53.89
7264;BME280;3673;52.480;13.348;2023-01-30T00:53:16;100738.06;;;6.36;53.67
7264;BME280;3673;52.480;13.348;2023-01-30T00:55:42;100743.28;;;6.38;53.91
7264;BME280;3673;52.480;13.348;2023-01-30T00:58:10;100731.25;;;6.43;53.53
7264;BME280;3673;52.480;13.348;2023-01-30T01:00:39;100710.47;;;6.43;53.32
7264;BME280;3673;52.480;13.348;2023-01-30T01:03:06;100727.06;;;6.54;53.55
7264;BME280;3673;52.480;13.348;2023-01-30T01:05:33;100727.41;;;6.21;54.09
7264;BME280;3673;52.480;13.348;2023-01-30T01:08:01;100724.69;;;6.67;53.24
7264;BME280;3673;52.480;13.348;2023-01-30T01:10:28;100734.28;;;6.70;52.98
7264;BME280;3673;52.480;13.348;2023-01-30T01:12:55;100717.63;;;6.59;53.17
7264;BME280;3673;52.480;13.348;2023-01-30T01:15:23;100714.81;;;6.45;53.43
7264;BME280;3673;52.480;13.348;2023-01-30T01:17:53;100716.88;;;6.12;53.98
7264;BME280;3673;52.480;13.348;2023-01-30T01:20:21;100666.97;;;6.31;53.43
7264;BME280;3673;52.480;13.348;2023-01-30T01:22:52;100661.06;;;6.40;53.51
7264;BME280;3673;52.480;13.348;2023-01-30T01:25:19;100653.69;;;6.11;54.35
7264;BME280;3673;52.480;13.348;2023-01-30T01:27:46;100656.00;;;5.95;54.71
7264;BME280;3673;52.480;13.348;2023-01-30T01:30:14;100660.09;;;6.35;53.95
7264;BME280;3673;52.480;13.348;2023-01-30T01:32:41;100664.56;;;6.43;53.58
7264;BME280;3673;52.480;13.348;2023-01-30T01:35:09;100659.88;;;6.21;53.79
7264;BME280;3673;52.480;13.348;2023-01-30T01:37:37;100649.28;;;6.07;54.35
7264;BME280;3673;52.480;13.348;2023-01-30T01:40:05;100646.34;;;6.40;53.82
7264;BME280;3673;52.480;13.348;2023-01-30T01:42:50;100666.41;;;5.95;54.57
7264;BME280;3673;52.480;13.348;2023-01-30T01:45:20;100672.84;;;6.18;54.09
7264;BME280;3673;52.480;13.348;2023-01-30T01:47:59;100674.44;;;6.10;54.50
7264;BME280;3673;52.480;13.348;2023-01-30T01:50:39;100658.63;;;6.52;53.84
7264;BME280;3673;52.480;13.348;2023-01-30T01:53:09;100665.06;;;6.81;52.64
7264;BME280;3673;52.480;13.348;2023-01-30T01:55:38;100649.28;;;6.66;52.87
7264;BME280;3673;52.480;13.348;2023-01-30T01:58:10;100643.13;;;6.61;53.17
7264;BME280;3673;52.480;13.348;2023-01-30T02:00:39;100637.81;;;6.50;53.29
7264;BME280;3673;52.480;13.348;2023-01-30T02:03:09;100619.22;;;6.20;54.56
7264;BME280;3673;52.480;13.348;2023-01-30T02:05:42;100618.56;;;6.36;54.64
7264;BME280;3673;52.480;13.348;2023-01-30T02:08:15;100598.16;;;6.63;54.26
7264;BME280;3673;52.480;13.348;2023-01-30T02:10:51;100585.47;;;6.25;55.82
7264;BME280;3673;52.480;13.348;2023-01-30T02:13:20;100573.81;;;5.95;57.19
7264;BME280;3673;52.480;13.348;2023-01-30T02:15:46;100564.28;;;6.59;56.51
7264;BME280;3673;52.480;13.348;2023-01-30T02:18:14;100562.53;;;5.93;57.64
7264;BME280;3673;52.480;13.348;2023-01-30T02:21:01;100559.63;;;5.75;58.62
7264;BME280;3673;52.480;13.348;2023-01-30T02:24:30;100535.09;;;6.12;58.43
7264;BME280;3673;52.480;13.348;2023-01-30T02:27:12;100530.75;;;6.09;57.98
7264;BME280;3673;52.480;13.348;2023-01-30T02:30:38;100527.75;;;5.84;58.32
7264;BME280;3673;52.480;13.348;2023-01-30T02:33:17;100525.97;;;5.80;58.47
7264;BME280;3673;52.480;13.348;2023-01-30T02:35:54;100517.97;;;6.26;57.25
7264;BME280;3673;52.480;13.348;2023-01-30T02:38:34;100526.66;;;6.28;57.23
7264;BME280;3673;52.480;13.348;2023-01-30T02:41:14;100531.69;;;6.17;57.06
7264;BME280;3673;52.480;13.348;2023-01-30T02:43:53;100523.53;;;5.89;58.43
7264;BME280;3673;52.480;13.348;2023-01-30T02:46:37;100500.66;;;6.25;57.57
7264;BME280;3673;52.480;13.348;2023-01-30T02:49:10;100491.56;;;5.93;59.23
7264;BME280;3673;52.480;13.348;2023-01-30T02:51:41;100493.47;;;6.07;59.20
7264;BME280;3673;52.480;13.348;2023-01-30T02:54:11;100492.53;;;6.01;59.90
7264;BME280;3673;52.480;13.348;2023-01-30T02:56:47;100469.63;;;5.72;60.16
7264;BME280;3673;52.480;13.348;2023-01-30T02:59:18;100468.97;;;5.86;59.78
7264;BME280;3673;52.480;13.348;2023-01-30T03:02:21;100470.19;;;6.12;59.64
7264;BME280;3673;52.480;13.348;2023-01-30T03:05:17;100452.66;;;5.97;59.78
7264;BME280;3673;52.480;13.348;2023-01-30T03:07:53;100437.22;;;6.08;59.75
7264;BME280;3673;52.480;13.348;2023-01-30T03:10:40;100444.81;;;5.90;59.73
7264;BME280;3673;52.480;13.348;2023-01-30T03:13:13;100431.44;;;6.27;59.32
7264;BME280;3673;52.480;13.348;2023-01-30T03:15:49;100439.31;;;6.36;58.88
7264;BME280;3673;52.480;13.348;2023-01-30T03:18:18;100441.81;;;6.27;58.82
7264;BME280;3673;52.480;13.348;2023-01-30T03:20:47;100418.72;;;6.56;58.27
7264;BME280;3673;52.480;13.348;2023-01-30T03:23:14;100428.88;;;6.33;58.84
7264;BME280;3673;52.480;13.348;2023-01-30T03:25:43;100418.22;;;6.09;59.50
7264;BME280;3673;52.480;13.348;2023-01-30T03:28:12;100423.53;;;6.19;58.88
7264;BME280;3673;52.480;13.348;2023-01-30T03:30:40;100433.91;;;6.18;59.17
7264;BME280;3673;52.480;13.348;2023-01-30T03:33:07;100409.59;;;6.10;59.01
7264;BME280;3673;52.480;13.348;2023-01-30T03:35:35;100402.72;;;6.16;58.79
7264;BME280;3673;52.480;13.348;2023-01-30T03:38:02;100403.50;;;6.09;59.15
7264;BME280;3673;52.480;13.348;2023-01-30T03:40:28;100395.88;;;6.23;59.20
7264;BME280;3673;52.480;13.348;2023-01-30T03:42:55;100412.16;;;6.07;59.46
7264;BME280;3673;52.480;13.348;2023-01-30T03:45:22;100407.25;;;6.37;58.81
7264;BME280;3673;52.480;13.348;2023-01-30T03:47:49;100388.16;;;6.32;58.93
7264;BME280;3673;52.480;13.348;2023-01-30T03:50:16;100391.91;;;6.57;58.41
7264;BME280;3673;52.480;13.348;2023-01-30T03:52:44;100380.84;;;6.82;58.30
7264;BME280;3673;52.480;13.348;2023-01-30T03:55:11;100381.72;;;6.84;58.15
7264;BME280;3673;52.480;13.348;2023-01-30T03:57:38;100368.44;;;6.51;58.91
7264;BME280;3673;52.480;13.348;2023-01-30T04:00:07;100367.75;;;6.67;59.04
7264;BME280;3673;52.480;13.348;2023-01-30T04:02:34;100357.28;;;6.64;59.48
7264;BME280;3673;52.480;13.348;2023-01-30T04:05:03;100354.91;;;6.91;58.89
7264;BME280;3673;52.480;13.348;2023-01-30T04:07:30;100343.34;;;6.53;59.84
7264;BME280;3673;52.480;13.348;2023-01-30T04:09:58;100346.03;;;6.65;59.32
7264;BME280;3673;52.480;13.348;2023-01-30T04:12:25;100344.47;;;6.85;58.74
7264;BME280;3673;52.480;13.348;2023-01-30T04:14:52;100335.03;;;6.96;58.64
7264;BME280;3673;52.480;13.348;2023-01-30T04:17:19;100325.31;;;6.72;58.48
7264;BME280;3673;52.480;13.348;2023-01-30T04:19:46;100335.00;;;6.90;58.54
7264;BME280;3673;52.480;13.348;2023-01-30T04:22:13;100317.78;;;7.09;58.35
7264;BME280;3673;52.480;13.348;2023-01-30T04:24:39;100324.56;;;6.89;58.28
7264;BME280;3673;52.480;13.348;2023-01-30T04:27:07;100318.47;;;6.85;58.75
7264;BME280;3673;52.480;13.348;2023-01-30T04:29:34;100323.00;;;7.12;57.80
7264;BME280;3673;52.480;13.348;2023-01-30T04:32:01;100318.44;;;6.81;58.26
7264;BME280;3673;52.480;13.348;2023-01-30T04:34:28;100315.88;;;6.84;58.17
7264;BME280;3673;52.480;13.348;2023-01-30T04:36:54;100300.34;;;6.97;58.02
7264;BME280;3673;52.480;13.348;2023-01-30T04:39:21;100299.31;;;6.74;58.40
7264;BME280;3673;52.480;13.348;2023-01-30T04:41:48;100298.41;;;6.63;59.03
7264;BME280;3673;52.480;13.348;2023-01-30T04:44:16;100306.44;;;7.01;58.40
7264;BME280;3673;52.480;13.348;2023-01-30T04:46:43;100300.63;;;7.46;57.20
7264;BME280;3673;52.480;13.348;2023-01-30T04:49:10;100294.25;;;6.91;57.69
7264;BME280;3673;52.480;13.348;2023-01-30T04:51:37;100291.69;;;6.94;58.52
7264;BME280;3673;52.480;13.348;2023-01-30T04:54:04;100274.38;;;6.99;58.45
7264;BME280;3673;52.480;13.348;2023-01-30T04:56:32;100278.72;;;7.03;58.66
7264;BME280;3673;52.480;13.348;2023-01-30T04:58:58;100281.19;;;6.80;59.41
7264;BME280;3673;52.480;13.348;2023-01-30T05:01:31;100268.94;;;6.65;60.80
7264;BME280;3673;52.480;13.348;2023-01-30T05:03:58;100266.44;;;6.79;60.84
7264;BME280;3673;52.480;13.348;2023-01-30T05:06:25;100259.50;;;6.77;61.55
7264;BME280;3673;52.480;13.348;2023-01-30T05:08:54;100261.91;;;6.52;61.90
7264;BME280;3673;52.480;13.348;2023-01-30T05:11:22;100255.69;;;6.29;62.99
7264;BME280;3673;52.480;13.348;2023-01-30T05:13:49;100251.53;;;6.55;62.86
7264;BME280;3673;52.480;13.348;2023-01-30T05:16:18;100251.38;;;6.34;63.76
7264;BME280;3673;52.480;13.348;2023-01-30T05:18:47;100245.34;;;6.37;63.49
7264;BME280;3673;52.480;13.348;2023-01-30T05:21:16;100243.72;;;6.52;63.49
7264;BME280;3673;52.480;13.348;2023-01-30T05:23:43;100237.59;;;6.43;63.79
7264;BME280;3673;52.480;13.348;2023-01-30T05:26:11;100236.66;;;6.30;64.65
7264;BME280;3673;52.480;13.348;2023-01-30T05:28:39;100247.03;;;6.30;64.21
7264;BME280;3673;52.480;13.348;2023-01-30T05:31:08;100238.50;;;6.46;64.57
7264;BME280;3673;52.480;13.348;2023-01-30T05:33:36;100234.94;;;6.34;64.53
7264;BME280;3673;52.480;13.348;2023-01-30T05:36:05;100233.31;;;6.49;64.37
7264;BME280;3673;52.480;13.348;2023-01-30T05:38:32;100219.56;;;6.65;64.25
7264;BME280;3673;52.480;13.348;2023-01-30T05:41:00;100212.66;;;6.70;63.94
7264;BME280;3673;52.480;13.348;2023-01-30T05:43:27;100214.22;;;6.43;64.38
7264;BME280;3673;52.480;13.348;2023-01-30T05:45:56;100210.00;;;6.60;64.48
7264;BME280;3673;52.480;13.348;2023-01-30T05:48:24;100198.81;;;6.70;63.98
7264;BME280;3673;52.480;13.348;2023-01-30T05:50:52;100210.09;;;6.73;63.86
7264;BME280;3673;52.480;13.348;2023-01-30T05:53:22;100197.81;;;6.51;64.05
7264;BME280;3673;52.480;13.348;2023-01-30T05:55:54;100178.00;;;6.71;64.33
7264;BME280;3673;52.480;13.348;2023-01-30T05:58:21;100165.16;;;7.02;63.43
7264;BME280;3673;52.480;13.348;2023-01-30T06:00:47;100184.91;;;6.65;64.50
7264;BME280;3673;52.480;13.348;2023-01-30T06:03:14;100157.28;;;6.82;64.24
7264;BME280;3673;52.480;13.348;2023-01-30T06:05:41;100159.06;;;6.98;63.85
7264;BME280;3673;52.480;13.348;2023-01-30T06:08:08;100157.28;;;6.82;64.40
7264;BME280;3673;52.480;13.348;2023-01-30T06:10:36;100161.44;;;6.51;64.63
7264;BME280;3673;52.480;13.348;2023-01-30T06:13:03;100160.66;;;6.66;64.99
7264;BME280;3673;52.480;13.348;2023-01-30T06:15:30;100170.31;;;6.88;64.45
7264;BME280;3673;52.480;13.348;2023-01-30T06:17:57;100166.91;;;7.07;64.12
7264;BME280;3673;52.480;13.348;2023-01-30T06:20:23;100168.59;;;6.93;63.92
7264;BME280;3673;52.480;13.348;2023-01-30T06:22:50;100160.78;;;6.89;64.63
7264;BME280;3673;52.480;13.348;2023-01-30T06:25:17;100166.81;;;6.80;64.47
7264;BME280;3673;52.480;13.348;2023-01-30T06:27:46;100151.34;;;7.18;64.68
7264;BME280;3673;52.480;13.348;2023-01-30T06:30:13;100160.06;;;7.29;63.49
7264;BME280;3673;52.480;13.348;2023-01-30T06:32:40;100160.81;;;7.04;64.93
7264;BME280;3673;52.480;13.348;2023-01-30T06:35:08;100164.31;;;7.04;64.47
7264;BME280;3673;52.480;13.348;2023-01-30T06:37:35;100176.31;;;6.78;65.38
7264;BME280;3673;52.480;13.348;2023-01-30T06:40:02;100172.16;;;7.16;64.86
7264;BME280;3673;52.480;13.348;2023-01-30T06:42:29;100176.50;;;7.22;64.62
7264;BME280;3673;52.480;13.348;2023-01-30T06:44:57;100185.91;;;6.87;65.05
7264;BME280;3673;52.480;13.348;2023-01-30T06:47:24;100173.91;;;7.19;64.77
7264;BME280;3673;52.480;13.348;2023-01-30T06:49:52;100181.75;;;7.27;64.16
7264;BME280;3673;52.480;13.348;2023-01-30T06:52:18;100166.91;;;7.07;65.29
7264;BME280;3673;52.480;13.348;2023-01-30T06:54:45;100162.59;;;7.14;64.78
7264;BME280;3673;52.480;13.348;2023-01-30T06:57:12;100156.63;;;7.45;64.46
7264;BME280;3673;52.480;13.348;2023-01-30T06:59:39;100142.78;;;7.63;63.99
7264;BME280;3673;52.480;13.348;2023-01-30T07:02:10;100141.03;;;7.59;63.24
7264;BME280;3673;52.480;13.348;2023-01-30T07:04:38;100145.38;;;7.52;64.39
7264;BME280;3673;52.480;13.348;2023-01-30T07:07:06;100143.59;;;7.29;65.52
7264;BME280;3673;52.480;13.348;2023-01-30T07:09:32;100136.69;;;7.52;65.20
7264;BME280;3673;52.480;13.348;2023-01-30T07:11:59;100140.06;;;7.17;66.41
7264;BME280;3673;52.480;13.348;2023-01-30T07:14:26;100121.97;;;7.63;65.77
7264;BME280;3673;52.480;13.348;2023-01-30T07:16:52;100134.09;;;7.55;65.81
7264;BME280;3673;52.480;13.348;2023-01-30T07:19:20;100141.00;;;7.38;66.34
7264;BME280;3673;52.480;13.348;2023-01-30T07:21:47;100132.38;;;7.64;66.00
7264;BME280;3673;52.480;13.348;2023-01-30T07:24:14;100127.13;;;7.42;66.25
7264;BME280;3673;52.480;13.348;2023-01-30T07:26:41;100120.19;;;7.57;66.20
7264;BME280;3673;52.480;13.348;2023-01-30T07:29:07;100123.72;;;7.84;66.08
7264;BME280;3673;52.480;13.348;2023-01-30T07:31:34;100119.34;;;7.52;65.93
7264;BME280;3673;52.480;13.348;2023-01-30T07:34:01;100120.22;;;7.69;66.48
7264;BME280;3673;52.480;13.348;2023-01-30T07:36:29;100128.03;;;7.56;66.63
7264;BME280;3673;52.480;13.348;2023-01-30T07:38:58;100120.22;;;7.68;66.43
7264;BME280;3673;52.480;13.348;2023-01-30T07:41:26;100119.34;;;7.98;66.35
7264;BME280;3673;52.480;13.348;2023-01-30T07:43:52;100118.50;;;7.84;65.93
7264;BME280;3673;52.480;13.348;2023-01-30T07:46:19;100132.41;;;7.70;66.44
7264;BME280;3673;52.480;13.348;2023-01-30T07:48:46;100128.88;;;7.55;67.61
7264;BME280;3673;52.480;13.348;2023-01-30T07:51:13;100142.78;;;8.14;67.10
7264;BME280;3673;52.480;13.348;2023-01-30T07:53:41;100147.13;;;7.76;67.55
7264;BME280;3673;52.480;13.348;2023-01-30T07:56:08;100127.16;;;7.78;67.38
7264;BME280;3673;52.480;13.348;2023-01-30T07:58:38;100138.47;;;8.00;67.50
7264;BME280;3673;52.480;13.348;2023-01-30T08:01:05;100134.97;;;8.42;66.86
7264;BME280;3673;52.480;13.348;2023-01-30T08:03:32;100146.28;;;8.19;65.79
7264;BME280;3673;52.480;13.348;2023-01-30T08:05:59;100137.59;;;8.05;67.07
7264;BME280;3673;52.480;13.348;2023-01-30T08:08:25;100131.50;;;8.12;67.70
7264;BME280;3673;52.480;13.348;2023-01-30T08:10:54;100131.50;;;8.41;66.30
7264;BME280;3673;52.480;13.348;2023-01-30T08:13:20;100139.28;;;8.58;65.83
7264;BME280;3673;52.480;13.348;2023-01-30T08:15:47;100134.97;;;7.98;67.60
7264;BME280;3673;52.480;13.348;2023-01-30T08:18:14;100149.75;;;7.91;67.85
7264;BME280;3673;52.480;13.348;2023-01-30T08:20:41;100126.31;;;8.37;67.53
7264;BME280;3673;52.480;13.348;2023-01-30T08:23:09;100143.69;;;8.10;67.15
7264;BME280;3673;52.480;13.348;2023-01-30T08:25:36;100129.75;;;8.46;66.95
7264;BME280;3673;52.480;13.348;2023-01-30T08:28:08;100129.72;;;8.51;67.43
7264;BME280;3673;52.480;13.348;2023-01-30T08:30:35;100123.69;;;8.17;68.14
7264;BME280;3673;52.480;13.348;2023-01-30T08:33:01;100101.00;;;8.72;66.16
7264;BME280;3673;52.480;13.348;2023-01-30T08:35:28;100104.47;;;8.71;65.92
7264;BME280;3673;52.480;13.348;2023-01-30T08:37:55;100132.38;;;8.39;66.50
7264;BME280;3673;52.480;13.348;2023-01-30T08:40:24;100131.47;;;8.49;66.72
7264;BME280;3673;52.480;13.348;2023-01-30T08:42:50;100128.91;;;8.17;67.93
7264;BME280;3673;52.480;13.348;2023-01-30T08:45:18;100128.91;;;8.40;66.51
7264;BME280;3673;52.480;13.348;2023-01-30T08:47:45;100132.25;;;8.79;66.33
7264;BME280;3673;52.480;13.348;2023-01-30T08:50:12;100134.97;;;8.39;66.19
7264;BME280;3673;52.480;13.348;2023-01-30T08:52:38;100135.00;;;8.40;66.59
7264;BME280;3673;52.480;13.348;2023-01-30T08:55:06;100138.41;;;8.57;65.84
7264;BME280;3673;52.480;13.348;2023-01-30T08:57:34;100132.25;;;8.83;65.06
7264;BME280;3673;52.480;13.348;2023-01-30T09:00:01;100120.97;;;8.81;65.30
7264;BME280;3673;52.480;13.348;2023-01-30T09:02:29;100130.47;;;8.97;64.28
7264;BME280;3673;52.480;13.348;2023-01-30T09:04:55;100133.22;;;8.50;64.68
7264;BME280;3673;52.480;13.348;2023-01-30T09:07:22;100141.84;;;8.76;64.50
7264;BME280;3673;52.480;13.348;2023-01-30T09:09:49;100135.75;;;8.74;65.02
7264;BME280;3673;52.480;13.348;2023-01-30T09:12:16;100137.50;;;8.67;64.56
7264;BME280;3673;52.480;13.348;2023-01-30T09:14:42;100143.28;;;9.44;63.38
7264;BME280;3673;52.480;13.348;2023-01-30T09:17:09;100127.78;;;9.12;64.04
7264;BME280;3673;52.480;13.348;2023-01-30T09:19:37;100136.47;;;9.17;63.79
7264;BME280;3673;52.480;13.348;2023-01-30T09:22:04;100137.47;;;8.87;63.74
7264;BME280;3673;52.480;13.348;2023-01-30T09:24:32;100136.59;;;8.87;64.80
7264;BME280;3673;52.480;13.348;2023-01-30T09:26:59;100143.53;;;8.94;64.11
7264;BME280;3673;52.480;13.348;2023-01-30T09:29:26;100144.28;;;9.12;64.13
7264;BME280;3673;52.480;13.348;2023-01-30T09:31:55;100144.44;;;8.77;65.07
7264;BME280;3673;52.480;13.348;2023-01-30T09:34:22;100142.66;;;8.84;65.12
7264;BME280;3673;52.480;13.348;2023-01-30T09:36:53;100140.97;;;8.68;65.49
7264;BME280;3673;52.480;13.348;2023-01-30T09:39:20;100138.22;;;9.12;65.06
7264;BME280;3673;52.480;13.348;2023-01-30T09:45:12;100137.03;;;9.64;63.17
7264;BME280;3673;52.480;13.348;2023-01-30T09:47:48;100140.78;;;9.18;63.98
7264;BME280;3673;52.480;13.348;2023-01-30T09:50:38;100144.91;;;9.60;63.46
7264;BME280;3673;52.480;13.348;2023-01-30T09:53:15;100143.88;;;9.83;62.51
7264;BME280;3673;52.480;13.348;2023-01-30T09:55:44;100136.53;;;9.03;64.22
7264;BME280;3673;52.480;13.348;2023-01-30T09:58:16;100137.28;;;9.23;64.36
7264;BME280;3673;52.480;13.348;2023-01-30T10:00:44;100123.53;;;8.85;64.03
7264;BME280;3673;52.480;13.348;2023-01-30T10:03:15;100135.38;;;9.53;63.30
7264;BME280;3673;52.480;13.348;2023-01-30T10:05:46;100137.09;;;9.57;63.04
7264;BME280;3673;52.480;13.348;2023-01-30T10:08:41;100140.91;;;8.92;63.36
7264;BME280;3673;52.480;13.348;2023-01-30T10:11:24;100136.56;;;8.97;62.49
7264;BME280;3673;52.480;13.348;2023-01-30T10:14:21;100128.38;;;9.56;61.13
7264;BME280;3673;52.480;13.348;2023-01-30T10:17:00;100130.31;;;9.24;61.61
7264;BME280;3673;52.480;13.348;2023-01-30T10:19:49;100124.94;;;9.48;60.28
7264;BME280;3673;52.480;13.348;2023-01-30T10:22:37;100137.56;;;10.07;58.56
7264;BME280;3673;52.480;13.348;2023-01-30T10:25:22;100134.28;;;9.81;58.77
7264;BME280;3673;52.480;13.348;2023-01-30T10:27:56;100132.91;;;9.30;60.19
7264;BME280;3673;52.480;13.348;2023-01-30T10:30:27;100129.47;;;9.19;59.62
7264;BME280;3673;52.480;13.348;2023-01-30T10:32:58;100143.19;;;9.54;59.72
7264;BME280;3673;52.480;13.348;2023-01-30T10:35:32;100136.38;;;9.27;59.00
7264;BME280;3673;52.480;13.348;2023-01-30T10:38:07;100124.72;;;9.83;58.29
7264;BME280;3673;52.480;13.348;2023-01-30T10:40:43;100121.19;;;9.87;57.65
7264;BME280;3673;52.480;13.348;2023-01-30T10:43:17;100130.03;;;9.69;57.64
7264;BME280;3673;52.480;13.348;2023-01-30T10:45:53;100115.91;;;9.92;56.17
7264;BME280;3673;52.480;13.348;2023-01-30T10:48:48;100115.44;;;10.46;55.49
7264;BME280;3673;52.480;13.348;2023-01-30T10:51:27;100125.13;;;9.19;57.04
7264;BME280;3673;52.480;13.348;2023-01-30T10:54:02;100115.38;;;9.49;57.14
7264;BME280;3673;52.480;13.348;2023-01-30T10:56:37;100113.50;;;9.69;56.23
7264;BME280;3673;52.480;13.348;2023-01-30T10:59:21;100113.63;;;9.54;55.80
7264;BME280;3673;52.480;13.348;2023-01-30T11:02:01;100109.41;;;9.33;56.46
7264;BME280;3673;52.480;13.348;2023-01-30T11:04:38;100097.97;;;9.48;56.16
7264;BME280;3673;52.480;13.348;2023-01-30T11:07:08;100095.47;;;9.32;57.08
7264;BME280;3673;52.480;13.348;2023-01-30T11:09:41;100101.38;;;9.60;56.35
7264;BME280;3673;52.480;13.348;2023-01-30T11:12:10;100091.72;;;9.73;55.74
7264;BME280;3673;52.480;13.348;2023-01-30T11:14:52;100096.19;;;9.57;56.34
7264;BME280;3673;52.480;13.348;2023-01-30T11:17:21;100085.38;;;9.98;55.14
7264;BME280;3673;52.480;13.348;2023-01-30T11:19:55;100075.81;;;9.96;55.18
7264;BME280;3673;52.480;13.348;2023-01-30T11:22:24;100088.88;;;9.96;55.33
7264;BME280;3673;52.480;13.348;2023-01-30T11:25:02;100080.38;;;9.71;55.87
7264;BME280;3673;52.480;13.348;2023-01-30T11:27:32;100064.16;;;10.31;54.68
7264;BME280;3673;52.480;13.348;2023-01-30T11:30:08;100061.41;;;9.48;55.88
7264;BME280;3673;52.480;13.348;2023-01-30T11:32:37;100042.84;;;9.81;55.79
7264;BME280;3673;52.480;13.348;2023-01-30T11:35:23;100040.41;;;9.61;55.76
7264;BME280;3673;52.480;13.348;2023-01-30T11:37:51;100033.19;;;9.92;55.21
7264;BME280;3673;52.480;13.348;2023-01-30T11:40:26;100033.84;;;10.11;54.82
7264;BME280;3673;52.480;13.348;2023-01-30T11:43:03;100041.66;;;10.18;55.10
7264;BME280;3673;52.480;13.348;2023-01-30T11:45:36;100022.25;;;9.49;56.60
7264;BME280;3673;52.480;13.348;2023-01-30T11:48:13;100032.69;;;9.54;56.40
7264;BME280;3673;52.480;13.348;2023-01-30T11:50:43;100012.22;;;10.00;55.31
7264;BME280;3673;52.480;13.348;2023-01-30T11:53:26;100013.91;;;10.04;54.55
7264;BME280;3673;52.480;13.348;2023-01-30T11:55:58;100009.16;;;9.55;54.82
7264;BME280;3673;52.480;13.348;2023-01-30T11:58:31;100003.31;;;10.20;53.96
7264;BME280;3673;52.480;13.348;2023-01-30T12:00:59;100003.47;;;10.04;54.91
7264;BME280;3673;52.480;13.348;2023-01-30T12:03:26;99987.75;;;10.05;54.92
7264;BME280;3673;52.480;13.348;2023-01-30T12:05:56;99985.84;;;10.21;54.44
7264;BME280;3673;52.480;13.348;2023-01-30T12:08:28;99989.63;;;9.93;55.16
7264;BME280;3673;52.480;13.348;2023-01-30T12:10:59;100031.72;;;10.51;54.45
7264;BME280;3673;52.480;13.348;2023-01-30T12:13:33;100006.00;;;10.08;55.70
7264;BME280;3673;52.480;13.348;2023-01-30T12:16:14;100022.03;;;9.75;55.98
7264;BME280;3673;52.480;13.348;2023-01-30T12:18:47;100003.47;;;9.02;58.34
7264;BME280;3673;52.480;13.348;2023-01-30T12:21:31;100002.81;;;9.82;56.09
7264;BME280;3673;52.480;13.348;2023-01-30T12:24:11;99989.81;;;9.74;56.87
7264;BME280;3673;52.480;13.348;2023-01-30T12:26:45;99978.97;;;10.15;56.23
7264;BME280;3673;52.480;13.348;2023-01-30T12:29:23;99982.56;;;10.77;55.24
7264;BME280;3673;52.480;13.348;2023-01-30T12:32:01;99969.38;;;10.81;53.72
7264;BME280;3673;52.480;13.348;2023-01-30T12:34:31;99977.31;;;10.75;53.14
7264;BME280;3673;52.480;13.348;2023-01-30T12:37:10;99963.75;;;10.48;53.06
7264;BME280;3673;52.480;13.348;2023-01-30T12:39:51;99974.75;;;9.98;53.92
7264;BME280;3673;52.480;13.348;2023-01-30T12:45:23;99979.81;;;9.24;57.31
7264;BME280;3673;52.480;13.348;2023-01-30T12:48:22;99964.75;;;9.57;57.31
7264;BME280;3673;52.480;13.348;2023-01-30T12:51:04;99972.13;;;9.06;57.78
7264;BME280;3673;52.480;13.348;2023-01-30T12:53:51;99968.91;;;9.76;56.99
7264;BME280;3673;52.480;13.348;2023-01-30T12:56:49;99962.47;;;10.09;55.86
7264;BME280;3673;52.480;13.348;2023-01-30T12:59:23;99953.28;;;10.51;54.94
7264;BME280;3673;52.480;13.348;2023-01-30T13:02:23;99958.50;;;10.49;53.95
7264;BME280;3673;52.480;13.348;2023-01-30T13:05:10;99961.03;;;9.77;54.13
7264;BME280;3673;52.480;13.348;2023-01-30T13:07:58;99953.09;;;10.63;53.11
7264;BME280;3673;52.480;13.348;2023-01-30T13:10:33;99960.16;;;9.81;53.63
7264;BME280;3673;52.480;13.348;2023-01-30T13:13:10;99949.25;;;10.22;52.69
7264;BME280;3673;52.480;13.348;2023-01-30T13:15:46;99946.78;;;10.09;52.57
7264;BME280;3673;52.480;13.348;2023-01-30T13:18:24;99947.03;;;10.58;51.86
7264;BME280;3673;52.480;13.348;2023-01-30T13:20:58;99941.56;;;10.10;51.05
7264;BME280;3673;52.480;13.348;2023-01-30T13:23:40;99950.53;;;9.85;51.81
7264;BME280;3673;52.480;13.348;2023-01-30T13:26:13;99952.88;;;10.08;51.30
7264;BME280;3673;52.480;13.348;2023-01-30T13:28:46;99957.41;;;10.65;50.40
7264;BME280;3673;52.480;13.348;2023-01-30T13:31:17;99938.91;;;10.77;50.57
7264;BME280;3673;52.480;13.348;2023-01-30T13:33:50;99945.22;;;9.91;52.36
7264;BME280;3673;52.480;13.348;2023-01-30T13:36:21;99924.66;;;10.39;51.75
7264;BME280;3673;52.480;13.348;2023-01-30T13:38:58;99923.44;;;10.64;51.27